sensor_id;sensor_type;location;lat;lon;timestamp;pressure;altitude;pressure_sealevel;temperature;humidity
62510;BME280;48558;48.242;11.654;2023-08-07T00:03:19;95875.69;;;12.42;87.53
62510;BME280;48558;48.242;11.654;2023-08-07T00:07:32;95876.72;;;12.45;86.84
62510;BME280;48558;48.242;11.654;2023-08-07T00:11:44;95867.31;;;12.37;88.44
62510;BME280;48558;48.242;11.654;2023-08-07T00:15:57;95867.25;;;12.31;90.59
62510;BME280;48558;48.242;11.654;2023-08-07T00:20:09;95875.28;;;12.29;91.25
62510;BME280;48558;48.242;11.654;2023-08-07T00:24:22;95891.59;;;12.07;96.90
62510;BME280;48558;48.242;11.654;2023-08-07T00:28:35;95899.47;;;11.94;100.00
62510;BME280;48558;48.242;11.654;2023-08-07T00:32:47;95890.88;;;11.63;100.00
62510;BME280;48558;48.242;11.654;2023-08-07T00:37:00;95889.38;;;11.47;100.00
62510;BME280;48558;48.242;11.654;2023-08-07T00:41:12;95897.69;;;11.32;100.00
62510;BME280;48558;48.242;11.654;2023-08-07T00:45:25;95900.44;;;11.18;100.00
62510;BME280;48558;48.242;11.654;2023-08-07T00:49:38;95902.75;;;11.19;100.00
62510;BME280;48558;48.242;11.654;2023-08-07T00:53:51;95905.22;;;11.03;100.00
62510;BME280;48558;48.242;11.654;2023-08-07T00:58:04;95909.88;;;10.97;100.00
62510;BME280;48558;48.242;11.654;2023-08-07T01:02:16;95898.53;;;10.95;100.00
62510;BME280;48558;48.242;11.654;2023-08-07T01:06:29;95914.06;;;10.92;100.00
62510;BME280;48558;48.242;11.654;2023-08-07T01:15:15;95926.16;;;10.80;100.00
62510;BME280;48558;48.242;11.654;2023-08-07T01:19:29;95923.88;;;10.78;100.00
62510;BME280;48558;48.242;11.654;2023-08-07T01:23:41;95913.19;;;10.86;100.00
62510;BME280;48558;48.242;11.654;2023-08-07T01:28:06;95916.16;;;10.82;100.00
62510;BME280;48558;48.242;11.654;2023-08-07T01:36:53;95911.63;;;10.70;100.00
62510;BME280;48558;48.242;11.654;2023-08-07T01:41:07;95925.09;;;10.77;100.00
62510;BME280;48558;48.242;11.654;2023-08-07T01:45:27;95923.75;;;10.73;100.00
62510;BME280;48558;48.242;11.654;2023-08-07T01:49:40;95918.22;;;10.73;100.00
62510;BME280;48558;48.242;11.654;2023-08-07T01:53:53;95920.41;;;10.69;100.00
62510;BME280;48558;48.242;11.654;2023-08-07T01:58:05;95933.44;;;10.68;100.00
62510;BME280;48558;48.242;11.654;2023-08-07T02:02:18;95936.22;;;10.68;100.00
62510;BME280;48558;48.242;11.654;2023-08-07T02:06:30;95946.50;;;10.68;100.00
62510;BME280;48558;48.242;11.654;2023-08-07T02:10:43;95940.88;;;10.62;100.00
62510;BME280;48558;48.242;11.654;2023-08-07T02:14:56;95941.22;;;10.55;100.00
62510;BME280;48558;48.242;11.654;2023-08-07T02:19:08;95958.88;;;10.58;100.00
62510;BME280;48558;48.242;11.654;2023-08-07T02:23:21;95950.28;;;10.56;100.00
62510;BME280;48558;48.242;11.654;2023-08-07T02:27:34;95955.03;;;10.55;100.00
62510;BME280;48558;48.242;11.654;2023-08-07T02:31:46;95958.03;;;10.43;100.00
62510;BME280;48558;48.242;11.654;2023-08-07T02:35:59;95959.78;;;10.55;100.00
62510;BME280;48558;48.242;11.654;2023-08-07T02:40:11;95979.19;;;10.46;100.00
62510;BME280;48558;48.242;11.654;2023-08-07T02:44:27;95981.91;;;10.55;100.00
62510;BME280;48558;48.242;11.654;2023-08-07T02:48:39;95980.19;;;10.57;100.00
62510;BME280;48558;48.242;11.654;2023-08-07T02:52:52;95974.88;;;10.45;100.00
62510;BME280;48558;48.242;11.654;2023-08-07T02:57:05;95983.78;;;10.49;100.00
62510;BME280;48558;48.242;11.654;2023-08-07T03:01:19;95979.31;;;10.51;100.00
62510;BME280;48558;48.242;11.654;2023-08-07T03:05:32;95977.50;;;10.48;100.00
62510;BME280;48558;48.242;11.654;2023-08-07T03:09:48;95976.38;;;10.55;100.00
62510;BME280;48558;48.242;11.654;2023-08-07T03:14:00;95975.16;;;10.56;100.00
62510;BME280;48558;48.242;11.654;2023-08-07T03:18:13;95977.91;;;10.56;100.00
62510;BME280;48558;48.242;11.654;2023-08-07T03:22:25;95985.94;;;10.68;100.00
62510;BME280;48558;48.242;11.654;2023-08-07T03:26:38;95981.59;;;10.53;100.00
62510;BME280;48558;48.242;11.654;2023-08-07T03:30:51;95972.69;;;10.58;100.00
62510;BME280;48558;48.242;11.654;2023-08-07T03:35:04;95974.31;;;10.64;100.00
62510;BME280;48558;48.242;11.654;2023-08-07T03:39:16;95980.84;;;10.52;100.00
62510;BME280;48558;48.242;11.654;2023-08-07T03:43:30;95982.13;;;10.66;100.00
62510;BME280;48558;48.242;11.654;2023-08-07T03:47:43;95996.88;;;10.63;100.00
62510;BME280;48558;48.242;11.654;2023-08-07T03:51:55;95992.34;;;10.74;100.00
62510;BME280;48558;48.242;11.654;2023-08-07T03:56:08;95991.84;;;10.85;100.00
62510;BME280;48558;48.242;11.654;2023-08-07T04:00:21;95996.09;;;10.86;100.00
62510;BME280;48558;48.242;11.654;2023-08-07T04:04:33;95990.34;;;10.75;100.00
62510;BME280;48558;48.242;11.654;2023-08-07T04:08:46;95998.28;;;10.82;100.00
62510;BME280;48558;48.242;11.654;2023-08-07T04:12:59;96000.94;;;10.76;100.00
62510;BME280;48558;48.242;11.654;2023-08-07T04:17:12;96010.91;;;10.98;100.00
62510;BME280;48558;48.242;11.654;2023-08-07T04:21:24;96014.47;;;10.98;100.00
62510;BME280;48558;48.242;11.654;2023-08-07T04:25:37;96017.50;;;11.00;100.00
62510;BME280;48558;48.242;11.654;2023-08-07T04:29:49;96005.53;;;11.03;100.00
62510;BME280;48558;48.242;11.654;2023-08-07T04:34:02;96017.31;;;11.04;100.00
62510;BME280;48558;48.242;11.654;2023-08-07T04:38:15;96019.91;;;11.07;100.00
62510;BME280;48558;48.242;11.654;2023-08-07T04:42:28;96012.69;;;11.10;100.00
62510;BME280;48558;48.242;11.654;2023-08-07T04:46:41;96027.66;;;11.18;100.00
62510;BME280;48558;48.242;11.654;2023-08-07T04:50:53;96029.59;;;11.26;100.00
62510;BME280;48558;48.242;11.654;2023-08-07T04:55:06;96026.81;;;11.26;100.00
62510;BME280;48558;48.242;11.654;2023-08-07T04:59:19;96019.88;;;11.31;100.00
62510;BME280;48558;48.242;11.654;2023-08-07T05:03:32;96029.34;;;11.39;100.00
62510;BME280;48558;48.242;11.654;2023-08-07T05:07:44;96033.94;;;11.42;100.00
62510;BME280;48558;48.242;11.654;2023-08-07T05:11:57;96022.38;;;11.43;98.41
62510;BME280;48558;48.242;11.654;2023-08-07T05:16:10;96044.81;;;11.45;99.57
62510;BME280;48558;48.242;11.654;2023-08-07T05:20:22;96034.31;;;11.49;97.09
62510;BME280;48558;48.242;11.654;2023-08-07T05:24:35;96039.00;;;11.58;93.93
62510;BME280;48558;48.242;11.654;2023-08-07T05:28:51;96047.19;;;11.52;95.98
62510;BME280;48558;48.242;11.654;2023-08-07T05:33:03;96051.09;;;11.61;95.85
62510;BME280;48558;48.242;11.654;2023-08-07T05:37:16;96046.34;;;11.61;92.81
62510;BME280;48558;48.242;11.654;2023-08-07T05:41:28;96051.59;;;11.59;91.08
62510;BME280;48558;48.242;11.654;2023-08-07T05:45:42;96055.13;;;11.60;93.17
62510;BME280;48558;48.242;11.654;2023-08-07T05:49:55;96066.50;;;11.62;91.82
62510;BME280;48558;48.242;11.654;2023-08-07T05:54:08;96086.25;;;11.69;91.51
62510;BME280;48558;48.242;11.654;2023-08-07T05:58:20;96069.28;;;11.76;92.40
62510;BME280;48558;48.242;11.654;2023-08-07T06:02:33;96067.56;;;11.79;91.89
62510;BME280;48558;48.242;11.654;2023-08-07T06:06:46;96077.13;;;11.78;90.98
62510;BME280;48558;48.242;11.654;2023-08-07T06:10:58;96072.47;;;11.98;90.72
62510;BME280;48558;48.242;11.654;2023-08-07T06:15:11;96081.72;;;11.95;89.18
62510;BME280;48558;48.242;11.654;2023-08-07T06:19:24;96090.03;;;12.10;89.75
62510;BME280;48558;48.242;11.654;2023-08-07T06:23:42;96078.00;;;11.98;89.36
62510;BME280;48558;48.242;11.654;2023-08-07T06:27:55;96095.38;;;12.13;87.94
62510;BME280;48558;48.242;11.654;2023-08-07T06:32:08;96089.34;;;12.15;87.01
62510;BME280;48558;48.242;11.654;2023-08-07T06:36:22;96097.09;;;12.26;87.27
62510;BME280;48558;48.242;11.654;2023-08-07T06:40:35;96100.53;;;12.20;86.46
62510;BME280;48558;48.242;11.654;2023-08-07T06:44:47;96109.00;;;12.46;86.45
62510;BME280;48558;48.242;11.654;2023-08-07T06:49:00;96098.78;;;12.52;83.67
62510;BME280;48558;48.242;11.654;2023-08-07T06:53:12;96113.00;;;12.60;83.77
62510;BME280;48558;48.242;11.654;2023-08-07T06:57:25;96109.06;;;12.81;81.88
62510;BME280;48558;48.242;11.654;2023-08-07T07:01:38;96100.72;;;12.81;80.04
62510;BME280;48558;48.242;11.654;2023-08-07T07:05:50;96108.28;;;12.80;79.54
62510;BME280;48558;48.242;11.654;2023-08-07T07:10:03;96125.66;;;12.95;81.71
62510;BME280;48558;48.242;11.654;2023-08-07T07:14:16;96126.31;;;13.05;78.50
62510;BME280;48558;48.242;11.654;2023-08-07T07:18:28;96123.84;;;12.92;77.15
62510;BME280;48558;48.242;11.654;2023-08-07T07:22:41;96139.41;;;13.05;75.63
62510;BME280;48558;48.242;11.654;2023-08-07T07:26:53;96138.16;;;13.20;75.14
62510;BME280;48558;48.242;11.654;2023-08-07T07:31:06;96135.72;;;13.28;73.48
62510;BME280;48558;48.242;11.654;2023-08-07T07:35:20;96142.88;;;13.54;74.31
62510;BME280;48558;48.242;11.654;2023-08-07T07:39:34;96155.16;;;13.68;71.93
62510;BME280;48558;48.242;11.654;2023-08-07T07:43:47;96164.25;;;14.14;70.86
62510;BME280;48558;48.242;11.654;2023-08-07T07:48:00;96146.50;;;14.89;67.73
62510;BME280;48558;48.242;11.654;2023-08-07T07:52:13;96151.84;;;14.92;66.01
62510;BME280;48558;48.242;11.654;2023-08-07T07:56:26;96157.88;;;14.85;66.61
62510;BME280;48558;48.242;11.654;2023-08-07T08:00:38;96186.44;;;14.86;64.54
62510;BME280;48558;48.242;11.654;2023-08-07T08:04:51;96162.28;;;15.03;65.95
62510;BME280;48558;48.242;11.654;2023-08-07T08:09:04;96161.16;;;15.21;65.26
62510;BME280;48558;48.242;11.654;2023-08-07T08:13:17;96170.72;;;15.14;63.64
62510;BME280;48558;48.242;11.654;2023-08-07T08:17:30;96181.47;;;15.32;62.79
62510;BME280;48558;48.242;11.654;2023-08-07T08:21:43;96181.66;;;15.65;63.51
62510;BME280;48558;48.242;11.654;2023-08-07T08:25:56;96196.06;;;16.17;61.46
62510;BME280;48558;48.242;11.654;2023-08-07T08:30:08;96178.00;;;15.91;61.71
62510;BME280;48558;48.242;11.654;2023-08-07T08:34:21;96192.41;;;15.84;63.26
62510;BME280;48558;48.242;11.654;2023-08-07T08:38:34;96189.13;;;15.43;63.04
62510;BME280;48558;48.242;11.654;2023-08-07T08:42:48;96192.13;;;15.76;62.76
62510;BME280;48558;48.242;11.654;2023-08-07T08:47:01;96200.47;;;15.76;62.01
62510;BME280;48558;48.242;11.654;2023-08-07T08:51:14;96216.50;;;15.44;63.07
62510;BME280;48558;48.242;11.654;2023-08-07T08:55:27;96223.34;;;14.81;63.68
62510;BME280;48558;48.242;11.654;2023-08-07T08:59:41;96230.53;;;14.67;64.57
62510;BME280;48558;48.242;11.654;2023-08-07T09:03:55;96222.81;;;15.08;64.33
62510;BME280;48558;48.242;11.654;2023-08-07T09:08:08;96231.94;;;15.45;64.70
62510;BME280;48558;48.242;11.654;2023-08-07T09:12:26;96226.69;;;15.53;62.58
62510;BME280;48558;48.242;11.654;2023-08-07T09:16:39;96225.50;;;15.70;63.25
62510;BME280;48558;48.242;11.654;2023-08-07T09:20:52;96234.66;;;15.76;61.62
62510;BME280;48558;48.242;11.654;2023-08-07T09:25:05;96236.44;;;15.37;63.41
62510;BME280;48558;48.242;11.654;2023-08-07T09:29:20;96230.53;;;15.30;63.44
62510;BME280;48558;48.242;11.654;2023-08-07T09:33:32;96236.69;;;15.76;61.56
62510;BME280;48558;48.242;11.654;2023-08-07T09:37:45;96231.16;;;15.82;60.02
62510;BME280;48558;48.242;11.654;2023-08-07T09:41:57;96235.09;;;16.12;60.60
62510;BME280;48558;48.242;11.654;2023-08-07T09:46:10;96235.25;;;16.56;59.33
62510;BME280;48558;48.242;11.654;2023-08-07T09:50:23;96234.78;;;16.74;59.19
62510;BME280;48558;48.242;11.654;2023-08-07T09:54:36;96221.06;;;17.70;58.62
62510;BME280;48558;48.242;11.654;2023-08-07T09:58:49;96228.47;;;17.57;57.30
62510;BME280;48558;48.242;11.654;2023-08-07T10:03:03;96227.44;;;17.15;57.33
62510;BME280;48558;48.242;11.654;2023-08-07T10:07:17;96227.19;;;17.02;57.23
62510;BME280;48558;48.242;11.654;2023-08-07T10:11:30;96229.72;;;17.45;58.40
62510;BME280;48558;48.242;11.654;2023-08-07T10:15:42;96225.66;;;17.23;56.27
62510;BME280;48558;48.242;11.654;2023-08-07T10:19:56;96219.84;;;16.99;56.11
62510;BME280;48558;48.242;11.654;2023-08-07T10:24:10;96234.28;;;17.14;56.57
62510;BME280;48558;48.242;11.654;2023-08-07T10:28:24;96227.69;;;17.56;55.70
62510;BME280;48558;48.242;11.654;2023-08-07T10:32:42;96242.66;;;17.70;55.76
62510;BME280;48558;48.242;11.654;2023-08-07T10:36:55;96222.09;;;17.51;54.94
62510;BME280;48558;48.242;11.654;2023-08-07T10:41:10;96220.78;;;19.54;50.66
62510;BME280;48558;48.242;11.654;2023-08-07T10:45:27;96217.13;;;18.64;51.48
62510;BME280;48558;48.242;11.654;2023-08-07T10:49:40;96211.25;;;19.62;51.67
62510;BME280;48558;48.242;11.654;2023-08-07T10:53:53;96211.59;;;19.23;49.41
62510;BME280;48558;48.242;11.654;2023-08-07T10:58:21;96206.00;;;19.53;48.02
62510;BME280;48558;48.242;11.654;2023-08-07T11:02:37;96206.81;;;18.83;49.54
62510;BME280;48558;48.242;11.654;2023-08-07T11:06:52;96204.47;;;18.00;53.53
62510;BME280;48558;48.242;11.654;2023-08-07T11:11:06;96194.41;;;17.64;53.25
62510;BME280;48558;48.242;11.654;2023-08-07T11:15:19;96198.53;;;18.20;52.01
62510;BME280;48558;48.242;11.654;2023-08-07T11:19:32;96195.44;;;18.24;52.09
62510;BME280;48558;48.242;11.654;2023-08-07T11:23:45;96210.63;;;18.39;51.36
62510;BME280;48558;48.242;11.654;2023-08-07T11:27:58;96216.56;;;18.19;51.92
62510;BME280;48558;48.242;11.654;2023-08-07T11:32:11;96215.94;;;17.91;53.77
62510;BME280;48558;48.242;11.654;2023-08-07T11:36:24;96222.09;;;18.30;52.53
62510;BME280;48558;48.242;11.654;2023-08-07T11:40:37;96230.59;;;18.08;51.14
62510;BME280;48558;48.242;11.654;2023-08-07T11:44:49;96220.53;;;18.40;51.16
62510;BME280;48558;48.242;11.654;2023-08-07T11:49:02;96220.19;;;19.31;49.29
62510;BME280;48558;48.242;11.654;2023-08-07T11:53:20;96228.13;;;19.57;47.70
62510;BME280;48558;48.242;11.654;2023-08-07T11:57:34;96227.31;;;19.86;48.72
62510;BME280;48558;48.242;11.654;2023-08-07T12:01:46;96231.84;;;19.94;47.50
62510;BME280;48558;48.242;11.654;2023-08-07T12:06:02;96228.78;;;19.68;46.74
62510;BME280;48558;48.242;11.654;2023-08-07T12:10:16;96228.91;;;20.06;46.44
62510;BME280;48558;48.242;11.654;2023-08-07T12:14:29;96237.19;;;19.68;47.27
62510;BME280;48558;48.242;11.654;2023-08-07T12:18:47;96246.31;;;18.17;49.14
62510;BME280;48558;48.242;11.654;2023-08-07T12:23:01;96253.00;;;17.97;51.24
62510;BME280;48558;48.242;11.654;2023-08-07T12:27:13;96252.47;;;18.04;50.95
62510;BME280;48558;48.242;11.654;2023-08-07T12:31:25;96254.25;;;18.02;50.77
62510;BME280;48558;48.242;11.654;2023-08-07T12:35:39;96251.47;;;18.02;50.61
62510;BME280;48558;48.242;11.654;2023-08-07T12:39:52;96251.09;;;18.27;49.01
62510;BME280;48558;48.242;11.654;2023-08-07T12:44:07;96243.53;;;18.17;48.82
62510;BME280;48558;48.242;11.654;2023-08-07T12:48:20;96249.88;;;18.12;50.46
62510;BME280;48558;48.242;11.654;2023-08-07T12:52:34;96256.59;;;17.86;51.87
62510;BME280;48558;48.242;11.654;2023-08-07T12:56:46;96259.69;;;17.61;51.28
62510;BME280;48558;48.242;11.654;2023-08-07T13:00:59;96271.34;;;17.81;49.87
62510;BME280;48558;48.242;11.654;2023-08-07T13:05:13;96256.38;;;17.68;51.17
62510;BME280;48558;48.242;11.654;2023-08-07T13:09:26;96270.19;;;18.23;50.54
62510;BME280;48558;48.242;11.654;2023-08-07T13:13:39;96261.84;;;18.12;47.96
62510;BME280;48558;48.242;11.654;2023-08-07T13:17:55;96273.16;;;17.68;49.11
62510;BME280;48558;48.242;11.654;2023-08-07T13:22:08;96277.88;;;18.06;48.16
62510;BME280;48558;48.242;11.654;2023-08-07T13:26:20;96271.28;;;17.98;49.05
62510;BME280;48558;48.242;11.654;2023-08-07T13:30:33;96275.44;;;18.43;47.23
62510;BME280;48558;48.242;11.654;2023-08-07T13:34:48;96288.16;;;18.55;46.99
62510;BME280;48558;48.242;11.654;2023-08-07T13:39:01;96293.22;;;17.55;49.43
62510;BME280;48558;48.242;11.654;2023-08-07T13:43:14;96301.88;;;17.68;49.05
62510;BME280;48558;48.242;11.654;2023-08-07T13:47:26;96307.16;;;17.88;48.17
62510;BME280;48558;48.242;11.654;2023-08-07T13:51:40;96306.94;;;17.64;49.51
62510;BME280;48558;48.242;11.654;2023-08-07T13:55:53;96308.34;;;18.21;47.33
62510;BME280;48558;48.242;11.654;2023-08-07T14:00:06;96307.63;;;19.24;45.33
62510;BME280;48558;48.242;11.654;2023-08-07T14:04:20;96326.88;;;19.39;44.36
62510;BME280;48558;48.242;11.654;2023-08-07T14:08:33;96327.69;;;20.23;42.14
62510;BME280;48558;48.242;11.654;2023-08-07T14:12:46;96332.84;;;19.59;42.14
62510;BME280;48558;48.242;11.654;2023-08-07T14:16:59;96331.31;;;18.77;45.79
62510;BME280;48558;48.242;11.654;2023-08-07T14:21:14;96341.59;;;18.41;46.42
62510;BME280;48558;48.242;11.654;2023-08-07T14:25:26;96340.75;;;18.74;45.49
62510;BME280;48558;48.242;11.654;2023-08-07T14:29:39;96347.22;;;18.35;46.89
62510;BME280;48558;48.242;11.654;2023-08-07T14:33:52;96358.19;;;18.96;45.67
62510;BME280;48558;48.242;11.654;2023-08-07T14:38:05;96353.34;;;18.45;45.14
62510;BME280;48558;48.242;11.654;2023-08-07T14:42:18;96373.50;;;17.71;47.69
62510;BME280;48558;48.242;11.654;2023-08-07T14:46:30;96382.50;;;17.00;48.82
62510;BME280;48558;48.242;11.654;2023-08-07T14:50:44;96377.38;;;16.87;50.66
62510;BME280;48558;48.242;11.654;2023-08-07T14:54:58;96388.41;;;17.18;50.08
62510;BME280;48558;48.242;11.654;2023-08-07T14:59:11;96385.88;;;17.32;49.31
62510;BME280;48558;48.242;11.654;2023-08-07T15:03:23;96389.50;;;17.60;49.45
62510;BME280;48558;48.242;11.654;2023-08-07T15:07:36;96381.13;;;17.65;48.42
62510;BME280;48558;48.242;11.654;2023-08-07T15:11:48;96396.09;;;17.84;47.79
62510;BME280;48558;48.242;11.654;2023-08-07T15:16:01;96394.84;;;17.85;48.37
62510;BME280;48558;48.242;11.654;2023-08-07T15:20:14;96408.56;;;17.67;50.01
62510;BME280;48558;48.242;11.654;2023-08-07T15:24:27;96404.16;;;17.33;51.23
62510;BME280;48558;48.242;11.654;2023-08-07T15:28:40;96412.06;;;17.45;52.16
62510;BME280;48558;48.242;11.654;2023-08-07T15:32:52;96421.19;;;17.40;52.14
62510;BME280;48558;48.242;11.654;2023-08-07T15:37:05;96427.28;;;17.44;52.45
62510;BME280;48558;48.242;11.654;2023-08-07T15:41:18;96424.47;;;17.33;53.15
62510;BME280;48558;48.242;11.654;2023-08-07T15:45:30;96428.06;;;16.69;53.22
62510;BME280;48558;48.242;11.654;2023-08-07T15:49:43;96423.91;;;16.54;53.90
62510;BME280;48558;48.242;11.654;2023-08-07T15:54:00;96442.50;;;16.25;55.08
62510;BME280;48558;48.242;11.654;2023-08-07T15:58:13;96444.44;;;16.14;56.81
62510;BME280;48558;48.242;11.654;2023-08-07T16:02:25;96451.19;;;16.02;57.40
62510;BME280;48558;48.242;11.654;2023-08-07T16:06:38;96451.34;;;15.61;59.99
62510;BME280;48558;48.242;11.654;2023-08-07T16:10:51;96445.94;;;15.52;61.81
62510;BME280;48558;48.242;11.654;2023-08-07T16:15:05;96446.97;;;15.55;61.77
62510;BME280;48558;48.242;11.654;2023-08-07T16:19:18;96461.13;;;15.31;64.73
62510;BME280;48558;48.242;11.654;2023-08-07T16:23:30;96456.78;;;15.04;65.85
62510;BME280;48558;48.242;11.654;2023-08-07T16:27:43;96465.00;;;15.14;67.99
62510;BME280;48558;48.242;11.654;2023-08-07T16:31:59;96459.56;;;15.04;69.33
62510;BME280;48558;48.242;11.654;2023-08-07T16:36:16;96466.59;;;14.80;70.63
62510;BME280;48558;48.242;11.654;2023-08-07T16:40:29;96471.88;;;14.98;66.50
62510;BME280;48558;48.242;11.654;2023-08-07T16:44:44;96468.88;;;15.22;66.78
62510;BME280;48558;48.242;11.654;2023-08-07T16:48:57;96472.88;;;15.41;67.16
62510;BME280;48558;48.242;11.654;2023-08-07T16:53:09;96478.19;;;15.39;66.60
62510;BME280;48558;48.242;11.654;2023-08-07T16:57:23;96477.38;;;15.33;67.54
62510;BME280;48558;48.242;11.654;2023-08-07T17:01:35;96475.69;;;15.21;66.56
62510;BME280;48558;48.242;11.654;2023-08-07T17:05:48;96476.63;;;15.12;66.92
62510;BME280;48558;48.242;11.654;2023-08-07T17:10:02;96459.66;;;15.10;68.38
62510;BME280;48558;48.242;11.654;2023-08-07T17:14:15;96467.97;;;15.30;67.13
62510;BME280;48558;48.242;11.654;2023-08-07T17:18:27;96479.47;;;14.97;65.97
62510;BME280;48558;48.242;11.654;2023-08-07T17:22:40;96475.16;;;14.96;68.16
62510;BME280;48558;48.242;11.654;2023-08-07T17:26:52;96471.13;;;14.97;67.39
62510;BME280;48558;48.242;11.654;2023-08-07T17:31:05;96472.72;;;14.84;67.66
62510;BME280;48558;48.242;11.654;2023-08-07T17:35:19;96479.13;;;14.70;68.91
62510;BME280;48558;48.242;11.654;2023-08-07T17:39:31;96447.97;;;14.66;69.85
62510;BME280;48558;48.242;11.654;2023-08-07T17:43:44;96475.78;;;14.66;70.12
62510;BME280;48558;48.242;11.654;2023-08-07T17:47:56;96465.50;;;14.37;71.59
62510;BME280;48558;48.242;11.654;2023-08-07T17:52:09;96472.19;;;14.45;71.67
62510;BME280;48558;48.242;11.654;2023-08-07T17:56:21;96471.16;;;14.43;73.16
62510;BME280;48558;48.242;11.654;2023-08-07T18:00:35;96468.66;;;14.45;72.82
62510;BME280;48558;48.242;11.654;2023-08-07T18:04:49;96475.97;;;14.42;74.50
62510;BME280;48558;48.242;11.654;2023-08-07T18:09:02;96480.88;;;14.32;75.41
62510;BME280;48558;48.242;11.654;2023-08-07T18:13:15;96476.16;;;14.24;75.36
62510;BME280;48558;48.242;11.654;2023-08-07T18:17:27;96473.50;;;14.15;77.10
62510;BME280;48558;48.242;11.654;2023-08-07T18:21:41;96490.06;;;14.09;78.04
62510;BME280;48558;48.242;11.654;2023-08-07T18:25:54;96493.25;;;14.02;76.39
62510;BME280;48558;48.242;11.654;2023-08-07T18:30:07;96494.47;;;14.16;75.34
62510;BME280;48558;48.242;11.654;2023-08-07T18:34:20;96495.47;;;13.98;80.36
62510;BME280;48558;48.242;11.654;2023-08-07T18:38:32;96501.78;;;13.84;84.83
62510;BME280;48558;48.242;11.654;2023-08-07T18:42:45;96493.25;;;13.88;88.72
62510;BME280;48558;48.242;11.654;2023-08-07T18:46:57;96499.09;;;13.75;92.85
62510;BME280;48558;48.242;11.654;2023-08-07T18:51:11;96493.19;;;13.68;96.70
62510;BME280;48558;48.242;11.654;2023-08-07T18:55:24;96513.38;;;13.68;100.00
62510;BME280;48558;48.242;11.654;2023-08-07T18:59:37;96515.28;;;13.47;100.00
62510;BME280;48558;48.242;11.654;2023-08-07T19:03:50;96516.44;;;13.70;100.00
62510;BME280;48558;48.242;11.654;2023-08-07T19:08:03;96515.75;;;13.75;100.00
62510;BME280;48558;48.242;11.654;2023-08-07T19:12:15;96524.69;;;13.79;100.00
62510;BME280;48558;48.242;11.654;2023-08-07T19:16:28;96521.22;;;13.70;98.78
62510;BME280;48558;48.242;11.654;2023-08-07T19:20:41;96523.31;;;13.60;98.11
62510;BME280;48558;48.242;11.654;2023-08-07T19:24:54;96521.13;;;13.49;96.55
62510;BME280;48558;48.242;11.654;2023-08-07T19:29:07;96528.09;;;13.45;98.06
62510;BME280;48558;48.242;11.654;2023-08-07T19:33:19;96525.25;;;13.54;96.08
62510;BME280;48558;48.242;11.654;2023-08-07T19:37:32;96528.75;;;13.40;96.80
62510;BME280;48558;48.242;11.654;2023-08-07T19:41:45;96535.16;;;13.46;96.01
62510;BME280;48558;48.242;11.654;2023-08-07T19:45:57;96530.50;;;13.52;94.86
62510;BME280;48558;48.242;11.654;2023-08-07T19:50:10;96538.34;;;13.53;94.71
62510;BME280;48558;48.242;11.654;2023-08-07T19:54:24;96535.16;;;13.46;95.58
62510;BME280;48558;48.242;11.654;2023-08-07T19:58:36;96536.34;;;13.54;92.81
62510;BME280;48558;48.242;11.654;2023-08-07T20:02:49;96541.69;;;13.57;93.21
62510;BME280;48558;48.242;11.654;2023-08-07T20:07:02;96534.09;;;13.43;94.21
62510;BME280;48558;48.242;11.654;2023-08-07T20:11:16;96540.56;;;13.49;93.00
62510;BME280;48558;48.242;11.654;2023-08-07T20:15:28;96541.63;;;13.52;90.98
62510;BME280;48558;48.242;11.654;2023-08-07T20:19:41;96548.97;;;13.55;90.58
62510;BME280;48558;48.242;11.654;2023-08-07T20:23:54;96537.66;;;13.44;91.69
62510;BME280;48558;48.242;11.654;2023-08-07T20:28:06;96541.78;;;13.48;90.53
62510;BME280;48558;48.242;11.654;2023-08-07T20:32:19;96534.03;;;13.52;89.84
62510;BME280;48558;48.242;11.654;2023-08-07T20:36:32;96534.03;;;13.52;89.86
62510;BME280;48558;48.242;11.654;2023-08-07T20:40:45;96536.31;;;13.39;89.87
62510;BME280;48558;48.242;11.654;2023-08-07T20:44:57;96528.94;;;13.36;90.10
62510;BME280;48558;48.242;11.654;2023-08-07T20:49:10;96527.00;;;13.28;89.71
62510;BME280;48558;48.242;11.654;2023-08-07T20:53:22;96524.34;;;13.33;89.86
62510;BME280;48558;48.242;11.654;2023-08-07T20:57:35;96524.13;;;13.37;89.33
62510;BME280;48558;48.242;11.654;2023-08-07T21:01:48;96531.13;;;13.32;90.03
62510;BME280;48558;48.242;11.654;2023-08-07T21:06:00;96532.66;;;13.33;88.84
62510;BME280;48558;48.242;11.654;2023-08-07T21:10:13;96532.66;;;13.33;88.45
62510;BME280;48558;48.242;11.654;2023-08-07T21:14:26;96531.31;;;13.29;88.55
62510;BME280;48558;48.242;11.654;2023-08-07T21:18:39;96528.38;;;13.09;90.28
62510;BME280;48558;48.242;11.654;2023-08-07T21:22:55;96516.56;;;12.99;91.13
62510;BME280;48558;48.242;11.654;2023-08-07T21:27:07;96513.63;;;12.79;91.91
62510;BME280;48558;48.242;11.654;2023-08-07T21:31:20;96515.22;;;12.71;92.36
62510;BME280;48558;48.242;11.654;2023-08-07T21:35:32;96518.34;;;12.64;93.35
62510;BME280;48558;48.242;11.654;2023-08-07T21:39:45;96500.16;;;12.63;93.16
62510;BME280;48558;48.242;11.654;2023-08-07T21:43:57;96506.81;;;12.56;94.13
62510;BME280;48558;48.242;11.654;2023-08-07T21:48:10;96514.56;;;12.76;93.11
62510;BME280;48558;48.242;11.654;2023-08-07T21:52:23;96508.06;;;12.79;92.43
62510;BME280;48558;48.242;11.654;2023-08-07T21:56:35;96502.78;;;12.66;93.62
62510;BME280;48558;48.242;11.654;2023-08-07T22:00:49;96503.03;;;12.92;90.93
62510;BME280;48558;48.242;11.654;2023-08-07T22:05:01;96503.53;;;12.90;90.61
62510;BME280;48558;48.242;11.654;2023-08-07T22:09:15;96506.03;;;13.03;89.50